PWSweather.com
Personal Weather Stations
Station Observations
BAYPARK
Bay Park, Ny, East Rockaway, NY 11518

Bay Park, NyEast Rockaway, NY 11518

Lat: 40.6310098, Lon: -73.6727287

Elevation: 11

Station Type: AcuRite Pro

https://www.awekas.at/en/instrument.php?id=14894

High Low Average
Temperature 85.7°F29.8°C 63.3°F17.4°C 73.3°F22.9°C
Dew Point 75.1°F23.9°C 54.5°F12.5°C 68.2°F20.1°C
Winds 3.7 mph 6.0 kmh Calm Calm 1.0 mph SSE1.6 kmh SSE
Wind Gusts 7.8 mph12.6 kmh -- 3.0 mph4.8 kmh
Humidity 99% 58% 85%
Pressure 30.33 in1027.1 mb 30.02 in1016.6 mb -
Precipitation 0.05 in1.3 mm - -
Hour Temp Dew Point Humidity Winds Wind Gusts Pressure Precip Precip Rate Daily Precip Total
12:00 AM 73.2°F22.9°C 72.3°F22.4°C 97% Calm Calm -- 30.06 in1017.9 mb 0.00 in0.0 mm 0.00 in0.0 mm 0.00 in0.0 mm
12:05 AM 73.1°F22.8°C 72.2°F22.3°C 97% Calm Calm -- 30.05 in1017.6 mb 0.00 in0.0 mm 0.00 in0.0 mm 0.00 in0.0 mm
12:10 AM 73.0°F22.8°C 72.2°F22.3°C 97% Calm Calm -- 30.05 in1017.6 mb 0.00 in0.0 mm 0.00 in0.0 mm 0.00 in0.0 mm
12:15 AM 73.0°F22.8°C 72.4°F22.4°C 98% Calm Calm -- 30.05 in1017.6 mb 0.00 in0.0 mm 0.00 in0.0 mm 0.00 in0.0 mm
12:20 AM 73.0°F22.8°C 72.4°F22.4°C 98% Calm Calm -- 30.05 in1017.6 mb 0.00 in0.0 mm 0.00 in0.0 mm 0.00 in0.0 mm
12:25 AM 73.0°F22.8°C 72.4°F22.4°C 98% Calm Calm -- 30.05 in1017.6 mb 0.00 in0.0 mm 0.00 in0.0 mm 0.00 in0.0 mm
12:30 AM 73.0°F22.8°C 72.4°F22.4°C 98% Calm Calm -- 30.05 in1017.6 mb 0.00 in0.0 mm 0.00 in0.0 mm 0.00 in0.0 mm
12:35 AM 73.2°F22.9°C 72.6°F22.6°C 98% 1.0 mph WSW1.6 kmh WSW 2.7 mph4.3 kmh 30.05 in1017.6 mb 0.00 in0.0 mm 0.00 in0.0 mm 0.00 in0.0 mm
12:40 AM 73.8°F23.2°C 73.2°F22.9°C 98% 0.8 mph SSW1.3 kmh SSW 2.7 mph4.3 kmh 30.05 in1017.6 mb 0.00 in0.0 mm 0.00 in0.0 mm 0.00 in0.0 mm
12:45 AM 74.1°F23.4°C 73.1°F22.8°C 97% 0.1 mph SSE0.2 kmh SSE 1.1 mph1.8 kmh 30.05 in1017.6 mb 0.00 in0.0 mm 0.00 in0.0 mm 0.00 in0.0 mm
12:50 AM 74.1°F23.4°C 72.9°F22.7°C 96% Calm Calm -- 30.04 in1017.3 mb 0.00 in0.0 mm 0.00 in0.0 mm 0.00 in0.0 mm
12:55 AM 74.1°F23.4°C 72.9°F22.7°C 96% 0.2 mph SSW0.3 kmh SSW 1.7 mph2.7 kmh 30.04 in1017.3 mb 0.00 in0.0 mm 0.00 in0.0 mm 0.00 in0.0 mm
01:00 AM 74.1°F23.4°C 72.9°F22.7°C 96% 0.4 mph WSW0.6 kmh WSW 1.7 mph2.7 kmh 30.04 in1017.3 mb 0.00 in0.0 mm 0.00 in0.0 mm 0.00 in0.0 mm
01:05 AM 74.1°F23.4°C 72.9°F22.7°C 96% 0.1 mph N0.2 kmh N 1.1 mph1.8 kmh 30.04 in1017.3 mb 0.00 in0.0 mm 0.00 in0.0 mm 0.00 in0.0 mm
01:10 AM 74.0°F23.3°C 72.8°F22.7°C 96% Calm Calm -- 30.04 in1017.3 mb 0.00 in0.0 mm 0.00 in0.0 mm 0.00 in0.0 mm
01:15 AM 73.9°F23.3°C 72.7°F22.6°C 96% Calm Calm -- 30.04 in1017.3 mb 0.00 in0.0 mm 0.00 in0.0 mm 0.00 in0.0 mm
01:20 AM 73.9°F23.3°C 72.7°F22.6°C 96% 0.2 mph SSW0.3 kmh SSW 1.1 mph1.8 kmh 30.03 in1016.9 mb 0.00 in0.0 mm 0.00 in0.0 mm 0.00 in0.0 mm
01:25 AM 73.8°F23.2°C 72.6°F22.6°C 96% Calm Calm -- 30.03 in1016.9 mb 0.00 in0.0 mm 0.00 in0.0 mm 0.00 in0.0 mm
01:30 AM 73.8°F23.2°C 72.6°F22.6°C 96% Calm Calm -- 30.03 in1016.9 mb 0.00 in0.0 mm 0.00 in0.0 mm 0.00 in0.0 mm
01:35 AM 73.7°F23.2°C 72.7°F22.6°C 97% 0.5 mph SW0.8 kmh SW 2.2 mph3.5 kmh 30.03 in1016.9 mb 0.00 in0.0 mm 0.00 in0.0 mm 0.00 in0.0 mm
01:40 AM 73.5°F23.1°C 72.6°F22.6°C 97% 0.1 mph N0.2 kmh N 1.7 mph2.7 kmh 30.03 in1016.9 mb 0.00 in0.0 mm 0.00 in0.0 mm 0.00 in0.0 mm
01:45 AM 73.3°F22.9°C 72.4°F22.4°C 97% 0.3 mph SSW0.5 kmh SSW 1.7 mph2.7 kmh 30.03 in1016.9 mb 0.00 in0.0 mm 0.00 in0.0 mm 0.00 in0.0 mm
01:50 AM 73.2°F22.9°C 72.3°F22.4°C 97% 0.1 mph SSW0.2 kmh SSW 1.7 mph2.7 kmh 30.03 in1016.9 mb 0.00 in0.0 mm 0.00 in0.0 mm 0.00 in0.0 mm
01:55 AM 73.0°F22.8°C 72.1°F22.3°C 97% 0.2 mph N0.3 kmh N 1.7 mph2.7 kmh 30.03 in1016.9 mb 0.00 in0.0 mm 0.00 in0.0 mm 0.00 in0.0 mm
02:00 AM 73.0°F22.8°C 72.1°F22.3°C 97% 0.1 mph SW0.2 kmh SW 1.1 mph1.8 kmh 30.03 in1016.9 mb 0.00 in0.0 mm 0.00 in0.0 mm 0.00 in0.0 mm
02:05 AM 72.9°F22.7°C 72.2°F22.3°C 98% 0.1 mph N0.2 kmh N 2.2 mph3.5 kmh 30.03 in1016.9 mb 0.00 in0.0 mm 0.00 in0.0 mm 0.00 in0.0 mm
02:10 AM 72.9°F22.7°C 72.3°F22.4°C 98% Calm Calm -- 30.03 in1016.9 mb 0.00 in0.0 mm 0.00 in0.0 mm 0.00 in0.0 mm
02:15 AM 72.7°F22.6°C 72.1°F22.3°C 98% 0.2 mph SSW0.3 kmh SSW 1.7 mph2.7 kmh 30.03 in1016.9 mb 0.00 in0.0 mm 0.00 in0.0 mm 0.00 in0.0 mm
02:20 AM 72.7°F22.6°C 72.1°F22.3°C 98% Calm Calm -- 30.03 in1016.9 mb 0.00 in0.0 mm 0.00 in0.0 mm 0.00 in0.0 mm
02:25 AM 72.7°F22.6°C 72.1°F22.3°C 98% Calm Calm -- 30.03 in1016.9 mb 0.00 in0.0 mm 0.00 in0.0 mm 0.00 in0.0 mm
02:30 AM 72.7°F22.6°C 72.1°F22.3°C 98% 0.3 mph SW0.5 kmh SW 1.7 mph2.7 kmh 30.03 in1016.9 mb 0.00 in0.0 mm 0.00 in0.0 mm 0.00 in0.0 mm
02:35 AM 72.7°F22.6°C 72.1°F22.3°C 98% 0.4 mph WSW0.6 kmh WSW 1.7 mph2.7 kmh 30.03 in1016.9 mb 0.00 in0.0 mm 0.00 in0.0 mm 0.00 in0.0 mm
02:40 AM 72.7°F22.6°C 72.1°F22.3°C 98% Calm Calm -- 30.03 in1016.9 mb 0.00 in0.0 mm 0.00 in0.0 mm 0.00 in0.0 mm
02:45 AM 72.7°F22.6°C 72.1°F22.3°C 98% 0.1 mph N0.2 kmh N 1.1 mph1.8 kmh 30.03 in1016.9 mb 0.00 in0.0 mm 0.00 in0.0 mm 0.00 in0.0 mm
02:50 AM 72.7°F22.6°C 72.1°F22.3°C 98% 0.1 mph SSW0.2 kmh SSW 1.1 mph1.8 kmh 30.03 in1016.9 mb 0.00 in0.0 mm 0.00 in0.0 mm 0.00 in0.0 mm
02:55 AM 72.7°F22.6°C 72.1°F22.3°C 98% Calm Calm -- 30.02 in1016.6 mb 0.00 in0.0 mm 0.00 in0.0 mm 0.00 in0.0 mm
03:00 AM 72.7°F22.6°C 72.1°F22.3°C 98% 0.1 mph SSW0.2 kmh SSW 1.7 mph2.7 kmh 30.02 in1016.6 mb 0.00 in0.0 mm 0.00 in0.0 mm 0.00 in0.0 mm
03:05 AM 72.5°F22.5°C 72.1°F22.3°C 98% 0.5 mph SSW0.8 kmh SSW 1.1 mph1.8 kmh 30.02 in1016.6 mb 0.00 in0.0 mm 0.00 in0.0 mm 0.00 in0.0 mm
03:10 AM 72.5°F22.5°C 72.2°F22.3°C 99% Calm Calm -- 30.02 in1016.6 mb 0.00 in0.0 mm 0.00 in0.0 mm 0.00 in0.0 mm
03:15 AM 72.5°F22.5°C 72.2°F22.3°C 99% Calm Calm -- 30.02 in1016.6 mb 0.00 in0.0 mm 0.00 in0.0 mm 0.00 in0.0 mm
03:20 AM 72.5°F22.5°C 72.2°F22.3°C 99% 0.2 mph S0.3 kmh S 1.7 mph2.7 kmh 30.02 in1016.6 mb 0.00 in0.0 mm 0.00 in0.0 mm 0.00 in0.0 mm
03:25 AM 72.5°F22.5°C 72.2°F22.3°C 99% Calm Calm -- 30.02 in1016.6 mb 0.00 in0.0 mm 0.00 in0.0 mm 0.00 in0.0 mm
03:30 AM 72.5°F22.5°C 72.2°F22.3°C 99% 0.2 mph N0.3 kmh N 1.7 mph2.7 kmh 30.02 in1016.6 mb 0.00 in0.0 mm 0.00 in0.0 mm 0.00 in0.0 mm
03:35 AM 72.5°F22.5°C 72.2°F22.3°C 99% 0.5 mph S0.8 kmh S 2.7 mph4.3 kmh 30.02 in1016.6 mb 0.00 in0.0 mm 0.00 in0.0 mm 0.00 in0.0 mm
03:40 AM 72.5°F22.5°C 72.2°F22.3°C 99% 0.4 mph SSW0.6 kmh SSW 1.7 mph2.7 kmh 30.02 in1016.6 mb 0.00 in0.0 mm 0.00 in0.0 mm 0.00 in0.0 mm
03:45 AM 72.4°F22.4°C 72.1°F22.3°C 99% 0.2 mph SSW0.3 kmh SSW 2.2 mph3.5 kmh 30.02 in1016.6 mb 0.00 in0.0 mm 0.00 in0.0 mm 0.00 in0.0 mm
03:50 AM 72.3°F22.4°C 72.0°F22.2°C 99% 0.4 mph SW0.6 kmh SW 1.7 mph2.7 kmh 30.02 in1016.6 mb 0.00 in0.0 mm 0.00 in0.0 mm 0.00 in0.0 mm
03:55 AM 72.3°F22.4°C 72.0°F22.2°C 99% 0.8 mph SW1.3 kmh SW 2.2 mph3.5 kmh 30.02 in1016.6 mb 0.00 in0.0 mm 0.00 in0.0 mm 0.00 in0.0 mm
04:00 AM 72.4°F22.4°C 72.1°F22.3°C 99% 1.8 mph SW2.9 kmh SW 2.7 mph4.3 kmh 30.02 in1016.6 mb 0.00 in0.0 mm 0.00 in0.0 mm 0.00 in0.0 mm
04:05 AM 72.5°F22.5°C 72.2°F22.3°C 99% 1.2 mph SSW1.9 kmh SSW 2.7 mph4.3 kmh 30.02 in1016.6 mb 0.00 in0.0 mm 0.00 in0.0 mm 0.00 in0.0 mm
04:10 AM 72.7°F22.6°C 72.4°F22.4°C 99% 0.1 mph W0.2 kmh W 1.1 mph1.8 kmh 30.02 in1016.6 mb 0.00 in0.0 mm 0.00 in0.0 mm 0.00 in0.0 mm
04:15 AM 72.9°F22.7°C 72.6°F22.6°C 99% 1.3 mph SW2.1 kmh SW 3.2 mph5.1 kmh 30.02 in1016.6 mb 0.00 in0.0 mm 0.00 in0.0 mm 0.00 in0.0 mm
04:20 AM 72.9°F22.7°C 72.6°F22.6°C 99% 1.3 mph WSW2.1 kmh WSW 3.7 mph6.0 kmh 30.04 in1017.3 mb 0.00 in0.0 mm 0.00 in0.0 mm 0.00 in0.0 mm
04:25 AM 72.9°F22.7°C 72.6°F22.6°C 99% 1.6 mph SW2.6 kmh SW 3.2 mph5.1 kmh 30.04 in1017.3 mb 0.00 in0.0 mm 0.00 in0.0 mm 0.00 in0.0 mm
04:30 AM 73.0°F22.8°C 72.7°F22.6°C 99% 1.4 mph SW2.3 kmh SW 3.2 mph5.1 kmh 30.05 in1017.6 mb 0.00 in0.0 mm 0.00 in0.0 mm 0.00 in0.0 mm
04:35 AM 73.0°F22.8°C 72.7°F22.6°C 99% 2.0 mph SW3.2 kmh SW 3.7 mph6.0 kmh 30.05 in1017.6 mb 0.00 in0.0 mm 0.00 in0.0 mm 0.00 in0.0 mm
04:40 AM 73.1°F22.8°C 72.8°F22.7°C 99% 2.4 mph WSW3.9 kmh WSW 6.3 mph10.1 kmh 30.05 in1017.6 mb 0.00 in0.0 mm 0.00 in0.0 mm 0.00 in0.0 mm
04:45 AM 73.4°F23.0°C 73.1°F22.8°C 99% 1.9 mph SW3.1 kmh SW 2.2 mph3.5 kmh 30.05 in1017.6 mb 0.00 in0.0 mm 0.00 in0.0 mm 0.00 in0.0 mm
04:50 AM 73.4°F23.0°C 73.1°F22.8°C 99% 2.5 mph SW4.0 kmh SW 3.7 mph6.0 kmh 30.05 in1017.6 mb 0.01 in0.3 mm 0.12 in3.0 mm 0.01 in0.3 mm
04:55 AM 73.4°F23.0°C 73.1°F22.8°C 99% 1.2 mph SW1.9 kmh SW 4.7 mph7.6 kmh 30.05 in1017.6 mb 0.02 in0.5 mm 0.12 in3.0 mm 0.02 in0.5 mm
05:00 AM 73.4°F23.0°C 73.1°F22.8°C 99% Calm Calm -- 30.03 in1016.9 mb 0.02 in0.5 mm 0.00 in0.0 mm 0.02 in0.5 mm
05:05 AM 73.2°F22.9°C 72.9°F22.7°C 99% Calm Calm -- 30.03 in1016.9 mb 0.02 in0.5 mm 0.00 in0.0 mm 0.02 in0.5 mm
05:10 AM 73.2°F22.9°C 72.9°F22.7°C 99% Calm Calm -- 30.03 in1016.9 mb 0.02 in0.5 mm 0.00 in0.0 mm 0.02 in0.5 mm
05:15 AM 73.0°F22.8°C 72.7°F22.6°C 99% Calm Calm -- 30.02 in1016.6 mb 0.02 in0.5 mm 0.00 in0.0 mm 0.02 in0.5 mm
05:20 AM 73.0°F22.8°C 72.7°F22.6°C 99% Calm Calm -- 30.02 in1016.6 mb 0.02 in0.5 mm 0.00 in0.0 mm 0.02 in0.5 mm
05:25 AM 72.9°F22.7°C 72.6°F22.6°C 99% Calm Calm -- 30.02 in1016.6 mb 0.02 in0.5 mm 0.00 in0.0 mm 0.02 in0.5 mm
05:30 AM 72.9°F22.7°C 72.6°F22.6°C 99% Calm Calm -- 30.03 in1016.9 mb 0.02 in0.5 mm 0.00 in0.0 mm 0.02 in0.5 mm
05:35 AM 72.8°F22.7°C 72.5°F22.5°C 99% Calm Calm -- 30.03 in1016.9 mb 0.02 in0.5 mm 0.00 in0.0 mm 0.02 in0.5 mm
05:40 AM 72.7°F22.6°C 72.4°F22.4°C 99% Calm Calm -- 30.03 in1016.9 mb 0.02 in0.5 mm 0.00 in0.0 mm 0.02 in0.5 mm
05:45 AM 72.7°F22.6°C 72.4°F22.4°C 99% Calm Calm -- 30.03 in1016.9 mb 0.02 in0.5 mm 0.00 in0.0 mm 0.02 in0.5 mm
05:50 AM 72.7°F22.6°C 72.4°F22.4°C 99% Calm Calm -- 30.04 in1017.3 mb 0.01 in0.3 mm 0.00 in0.0 mm 0.02 in0.5 mm
05:55 AM 72.7°F22.6°C 72.4°F22.4°C 99% Calm Calm -- 30.04 in1017.3 mb 0.00 in0.0 mm 0.00 in0.0 mm 0.02 in0.5 mm
06:00 AM 72.7°F22.6°C 72.4°F22.4°C 99% 0.1 mph WSW0.2 kmh WSW 1.1 mph1.8 kmh 30.04 in1017.3 mb 0.00 in0.0 mm 0.00 in0.0 mm 0.02 in0.5 mm
06:05 AM 72.7°F22.6°C 72.4°F22.4°C 99% 0.4 mph S0.6 kmh S 1.7 mph2.7 kmh 30.05 in1017.6 mb 0.00 in0.0 mm 0.00 in0.0 mm 0.02 in0.5 mm
06:10 AM 72.7°F22.6°C 72.4°F22.4°C 99% 0.1 mph SW0.2 kmh SW 1.7 mph2.7 kmh 30.05 in1017.6 mb 0.00 in0.0 mm 0.00 in0.0 mm 0.02 in0.5 mm
06:15 AM 72.7°F22.6°C 72.4°F22.4°C 99% 0.5 mph SW0.8 kmh SW 2.2 mph3.5 kmh 30.05 in1017.6 mb 0.00 in0.0 mm 0.00 in0.0 mm 0.02 in0.5 mm
06:20 AM 72.6°F22.6°C 72.3°F22.4°C 99% 0.8 mph SSW1.3 kmh SSW 3.2 mph5.1 kmh 30.05 in1017.6 mb 0.00 in0.0 mm 0.00 in0.0 mm 0.02 in0.5 mm
06:25 AM 72.5°F22.5°C 72.2°F22.3°C 99% Calm Calm -- 30.05 in1017.6 mb 0.00 in0.0 mm 0.00 in0.0 mm 0.02 in0.5 mm
06:30 AM 72.5°F22.5°C 72.2°F22.3°C 99% 0.5 mph SW0.8 kmh SW 2.7 mph4.3 kmh 30.05 in1017.6 mb 0.00 in0.0 mm 0.00 in0.0 mm 0.02 in0.5 mm
06:35 AM 72.5°F22.5°C 72.2°F22.3°C 99% 0.9 mph S1.4 kmh S 2.2 mph3.5 kmh 30.05 in1017.6 mb 0.00 in0.0 mm 0.00 in0.0 mm 0.02 in0.5 mm
06:40 AM 72.5°F22.5°C 72.2°F22.3°C 99% Calm Calm -- 30.05 in1017.6 mb 0.00 in0.0 mm 0.00 in0.0 mm 0.02 in0.5 mm
06:45 AM 72.7°F22.6°C 72.4°F22.4°C 99% 0.3 mph N0.5 kmh N 1.7 mph2.7 kmh 30.05 in1017.6 mb 0.00 in0.0 mm 0.00 in0.0 mm 0.02 in0.5 mm
06:50 AM 72.9°F22.7°C 72.6°F22.6°C 99% Calm Calm -- 30.05 in1017.6 mb 0.00 in0.0 mm 0.00 in0.0 mm 0.02 in0.5 mm
06:55 AM 72.9°F22.7°C 72.6°F22.6°C 99% Calm Calm -- 30.05 in1017.6 mb 0.00 in0.0 mm 0.00 in0.0 mm 0.02 in0.5 mm
07:00 AM 73.0°F22.8°C 72.7°F22.6°C 99% Calm Calm -- 30.05 in1017.6 mb 0.00 in0.0 mm 0.00 in0.0 mm 0.02 in0.5 mm
07:05 AM 73.7°F23.2°C 73.4°F23.0°C 99% Calm Calm -- 30.06 in1017.9 mb 0.00 in0.0 mm 0.00 in0.0 mm 0.02 in0.5 mm
07:10 AM 74.1°F23.4°C 73.7°F23.2°C 99% Calm Calm -- 30.06 in1017.9 mb 0.00 in0.0 mm 0.00 in0.0 mm 0.02 in0.5 mm
07:15 AM 74.5°F23.6°C 73.8°F23.2°C 98% Calm Calm -- 30.06 in1017.9 mb 0.00 in0.0 mm 0.00 in0.0 mm 0.02 in0.5 mm
07:20 AM 74.5°F23.6°C 73.9°F23.3°C 98% Calm Calm -- 30.06 in1017.9 mb 0.01 in0.3 mm 0.12 in3.0 mm 0.03 in0.8 mm
07:25 AM 75.2°F24.0°C 74.4°F23.6°C 97% Calm Calm -- 30.06 in1017.9 mb 0.01 in0.3 mm 0.00 in0.0 mm 0.03 in0.8 mm
07:30 AM 76.2°F24.6°C 74.8°F23.8°C 95% 0.2 mph E0.3 kmh E 1.7 mph2.7 kmh 30.06 in1017.9 mb 0.01 in0.3 mm 0.00 in0.0 mm 0.03 in0.8 mm
07:35 AM 77.1°F25.1°C 75.1°F23.9°C 94% 0.1 mph N0.2 kmh N 1.1 mph1.8 kmh 30.06 in1017.9 mb 0.01 in0.3 mm 0.00 in0.0 mm 0.03 in0.8 mm
07:40 AM 77.3°F25.2°C 74.6°F23.7°C 91% 1.1 mph SE1.8 kmh SE 2.7 mph4.3 kmh 30.06 in1017.9 mb 0.01 in0.3 mm 0.00 in0.0 mm 0.03 in0.8 mm
07:45 AM 77.5°F25.3°C 74.5°F23.6°C 90% 0.8 mph NE1.3 kmh NE 2.7 mph4.3 kmh 30.06 in1017.9 mb 0.01 in0.3 mm 0.00 in0.0 mm 0.03 in0.8 mm
07:50 AM 77.9°F25.5°C 74.5°F23.6°C 90% 2.0 mph E3.2 kmh E 4.2 mph6.8 kmh 30.06 in1017.9 mb 0.01 in0.3 mm 0.00 in0.0 mm 0.03 in0.8 mm
07:55 AM 77.8°F25.4°C 74.3°F23.5°C 89% 1.6 mph ENE2.6 kmh ENE 3.7 mph6.0 kmh 30.06 in1017.9 mb 0.01 in0.3 mm 0.00 in0.0 mm 0.03 in0.8 mm
08:00 AM 78.2°F25.7°C 74.7°F23.7°C 89% 1.6 mph E2.6 kmh E 2.7 mph4.3 kmh 30.06 in1017.9 mb 0.01 in0.3 mm 0.00 in0.0 mm 0.03 in0.8 mm
08:05 AM 78.3°F25.7°C 74.8°F23.8°C 89% 1.0 mph ESE1.6 kmh ESE 3.2 mph5.1 kmh 30.06 in1017.9 mb 0.01 in0.3 mm 0.00 in0.0 mm 0.03 in0.8 mm
08:10 AM 78.2°F25.7°C 74.4°F23.6°C 88% 0.8 mph SE1.3 kmh SE 2.7 mph4.3 kmh 30.06 in1017.9 mb 0.01 in0.3 mm 0.00 in0.0 mm 0.03 in0.8 mm
08:15 AM 77.8°F25.4°C 74.3°F23.5°C 89% 0.5 mph ESE0.8 kmh ESE 2.2 mph3.5 kmh 30.07 in1018.3 mb 0.01 in0.3 mm 0.00 in0.0 mm 0.03 in0.8 mm
08:20 AM 77.6°F25.3°C 74.1°F23.4°C 89% 1.1 mph SE1.8 kmh SE 2.7 mph4.3 kmh 30.07 in1018.3 mb 0.00 in0.0 mm 0.00 in0.0 mm 0.03 in0.8 mm
08:25 AM 77.5°F25.3°C 74.0°F23.3°C 89% 1.0 mph S1.6 kmh S 2.7 mph4.3 kmh 30.07 in1018.3 mb 0.00 in0.0 mm 0.00 in0.0 mm 0.03 in0.8 mm
08:30 AM 77.5°F25.3°C 74.0°F23.3°C 89% 0.4 mph ESE0.6 kmh ESE 2.2 mph3.5 kmh 30.07 in1018.3 mb 0.00 in0.0 mm 0.00 in0.0 mm 0.03 in0.8 mm
08:35 AM 77.6°F25.3°C 73.9°F23.3°C 88% 0.7 mph S1.1 kmh S 2.7 mph4.3 kmh 30.07 in1018.3 mb 0.00 in0.0 mm 0.00 in0.0 mm 0.03 in0.8 mm
08:40 AM 77.5°F25.3°C 73.6°F23.1°C 88% 1.0 mph SW1.6 kmh SW 3.7 mph6.0 kmh 30.07 in1018.3 mb 0.00 in0.0 mm 0.00 in0.0 mm 0.03 in0.8 mm
08:45 AM 77.4°F25.2°C 73.3°F22.9°C 87% 1.2 mph NW1.9 kmh NW 2.2 mph3.5 kmh 30.07 in1018.3 mb 0.00 in0.0 mm 0.00 in0.0 mm 0.03 in0.8 mm
08:50 AM 77.3°F25.2°C 72.9°F22.7°C 86% 0.3 mph SW0.5 kmh SW 2.2 mph3.5 kmh 30.07 in1018.3 mb 0.00 in0.0 mm 0.00 in0.0 mm 0.03 in0.8 mm
08:55 AM 77.5°F25.3°C 72.4°F22.4°C 84% 1.2 mph NE1.9 kmh NE 2.7 mph4.3 kmh 30.07 in1018.3 mb 0.00 in0.0 mm 0.00 in0.0 mm 0.03 in0.8 mm
09:00 AM 77.9°F25.5°C 71.9°F22.2°C 82% 1.4 mph W2.3 kmh W 3.2 mph5.1 kmh 30.07 in1018.3 mb 0.00 in0.0 mm 0.00 in0.0 mm 0.03 in0.8 mm
09:05 AM 78.7°F25.9°C 71.8°F22.1°C 80% 1.7 mph SSW2.7 kmh SSW 3.2 mph5.1 kmh 30.07 in1018.3 mb 0.00 in0.0 mm 0.00 in0.0 mm 0.03 in0.8 mm
09:10 AM 79.3°F26.3°C 71.3°F21.8°C 76% 1.6 mph W2.6 kmh W 3.7 mph6.0 kmh 30.07 in1018.3 mb 0.00 in0.0 mm 0.00 in0.0 mm 0.03 in0.8 mm
09:15 AM 80.1°F26.7°C 71.1°F21.7°C 74% 1.8 mph SE2.9 kmh SE 3.2 mph5.1 kmh 30.08 in1018.6 mb 0.00 in0.0 mm 0.00 in0.0 mm 0.03 in0.8 mm
09:20 AM 80.1°F26.7°C 70.6°F21.4°C 73% 2.3 mph E3.7 kmh E 4.2 mph6.8 kmh 30.08 in1018.6 mb 0.00 in0.0 mm 0.00 in0.0 mm 0.03 in0.8 mm
09:25 AM 80.5°F26.9°C 70.2°F21.2°C 71% 2.1 mph SE3.4 kmh SE 3.7 mph6.0 kmh 30.08 in1018.6 mb 0.00 in0.0 mm 0.00 in0.0 mm 0.03 in0.8 mm
09:30 AM 80.8°F27.1°C 70.4°F21.3°C 71% 1.7 mph SSW2.7 kmh SSW 3.2 mph5.1 kmh 30.07 in1018.3 mb 0.00 in0.0 mm 0.00 in0.0 mm 0.03 in0.8 mm
09:35 AM 81.2°F27.3°C 70.5°F21.4°C 70% 1.7 mph SE2.7 kmh SE 3.7 mph6.0 kmh 30.07 in1018.3 mb 0.00 in0.0 mm 0.00 in0.0 mm 0.03 in0.8 mm
09:40 AM 81.8°F27.7°C 70.6°F21.4°C 69% 2.0 mph E3.2 kmh E 3.2 mph5.1 kmh 30.08 in1018.6 mb 0.00 in0.0 mm 0.00 in0.0 mm 0.03 in0.8 mm
09:45 AM 82.5°F28.1°C 70.5°F21.4°C 67% 1.4 mph SSE2.3 kmh SSE 3.7 mph6.0 kmh 30.08 in1018.6 mb 0.00 in0.0 mm 0.00 in0.0 mm 0.03 in0.8 mm
09:50 AM 82.4°F28.0°C 70.3°F21.3°C 67% 1.3 mph SSW2.1 kmh SSW 3.7 mph6.0 kmh 30.08 in1018.6 mb 0.00 in0.0 mm 0.00 in0.0 mm 0.03 in0.8 mm
09:55 AM 82.4°F28.0°C 70.4°F21.3°C 67% 1.7 mph SE2.7 kmh SE 3.2 mph5.1 kmh 30.08 in1018.6 mb 0.00 in0.0 mm 0.00 in0.0 mm 0.03 in0.8 mm
10:00 AM 82.0°F27.8°C 70.2°F21.2°C 68% 1.4 mph SW2.3 kmh SW 2.7 mph4.3 kmh 30.08 in1018.6 mb 0.00 in0.0 mm 0.00 in0.0 mm 0.03 in0.8 mm
10:05 AM 81.3°F27.4°C 69.5°F20.8°C 67% 1.7 mph SE2.7 kmh SE 4.2 mph6.8 kmh 30.09 in1019.0 mb 0.00 in0.0 mm 0.00 in0.0 mm 0.03 in0.8 mm
10:10 AM 81.0°F27.2°C 69.1°F20.6°C 67% 1.3 mph E2.1 kmh E 3.7 mph6.0 kmh 30.09 in1019.0 mb 0.00 in0.0 mm 0.00 in0.0 mm 0.03 in0.8 mm
10:15 AM 81.3°F27.4°C 69.3°F20.7°C 67% 0.8 mph E1.3 kmh E 2.7 mph4.3 kmh 30.09 in1019.0 mb 0.00 in0.0 mm 0.00 in0.0 mm 0.03 in0.8 mm
10:20 AM 81.6°F27.6°C 69.2°F20.7°C 66% 1.6 mph N2.6 kmh N 3.7 mph6.0 kmh 30.09 in1019.0 mb 0.00 in0.0 mm 0.00 in0.0 mm 0.03 in0.8 mm
10:25 AM 81.6°F27.6°C 69.3°F20.7°C 66% 1.8 mph W2.9 kmh W 4.7 mph7.6 kmh 30.09 in1019.0 mb 0.00 in0.0 mm 0.00 in0.0 mm 0.03 in0.8 mm
10:30 AM 82.8°F28.2°C 69.6°F20.9°C 65% 2.2 mph WSW3.5 kmh WSW 4.2 mph6.8 kmh 30.08 in1018.6 mb 0.00 in0.0 mm 0.00 in0.0 mm 0.03 in0.8 mm
10:35 AM 83.8°F28.8°C 69.8°F21.0°C 63% 1.8 mph SE2.9 kmh SE 3.2 mph5.1 kmh 30.08 in1018.6 mb 0.00 in0.0 mm 0.00 in0.0 mm 0.03 in0.8 mm
10:40 AM 83.0°F28.3°C 69.2°F20.7°C 63% 2.0 mph E3.2 kmh E 3.2 mph5.1 kmh 30.09 in1019.0 mb 0.00 in0.0 mm 0.00 in0.0 mm 0.03 in0.8 mm
10:45 AM 82.4°F28.0°C 69.0°F20.6°C 64% 1.8 mph SSE2.9 kmh SSE 4.2 mph6.8 kmh 30.09 in1019.0 mb 0.00 in0.0 mm 0.00 in0.0 mm 0.03 in0.8 mm
10:50 AM 82.1°F27.8°C 68.8°F20.4°C 64% 2.2 mph WSW3.5 kmh WSW 6.3 mph10.1 kmh 30.09 in1019.0 mb 0.00 in0.0 mm 0.00 in0.0 mm 0.03 in0.8 mm
10:55 AM 83.8°F28.8°C 69.6°F20.9°C 62% 2.2 mph SW3.5 kmh SW 3.7 mph6.0 kmh 30.09 in1019.0 mb 0.00 in0.0 mm 0.00 in0.0 mm 0.03 in0.8 mm
11:00 AM 83.4°F28.6°C 69.3°F20.7°C 63% 1.8 mph ESE2.9 kmh ESE 3.7 mph6.0 kmh 30.09 in1019.0 mb 0.00 in0.0 mm 0.00 in0.0 mm 0.03 in0.8 mm
11:05 AM 82.9°F28.3°C 69.3°F20.7°C 64% 2.2 mph ESE3.5 kmh ESE 4.2 mph6.8 kmh 30.08 in1018.6 mb 0.00 in0.0 mm 0.00 in0.0 mm 0.03 in0.8 mm
11:10 AM 82.8°F28.2°C 69.6°F20.9°C 64% 2.8 mph N4.5 kmh N 7.8 mph12.6 kmh 30.08 in1018.6 mb 0.00 in0.0 mm 0.00 in0.0 mm 0.03 in0.8 mm
11:15 AM 82.4°F28.0°C 69.6°F20.9°C 66% 2.3 mph E3.7 kmh E 6.3 mph10.1 kmh 30.09 in1019.0 mb 0.00 in0.0 mm 0.00 in0.0 mm 0.03 in0.8 mm
11:20 AM 83.2°F28.4°C 70.2°F21.2°C 65% 1.8 mph E2.9 kmh E 4.2 mph6.8 kmh 30.09 in1019.0 mb 0.00 in0.0 mm 0.00 in0.0 mm 0.03 in0.8 mm
11:25 AM 83.6°F28.7°C 69.8°F21.0°C 63% 1.9 mph ESE3.1 kmh ESE 4.2 mph6.8 kmh 30.09 in1019.0 mb 0.00 in0.0 mm 0.00 in0.0 mm 0.03 in0.8 mm
11:30 AM 84.3°F29.1°C 70.0°F21.1°C 62% 2.4 mph NW3.9 kmh NW 3.7 mph6.0 kmh 30.09 in1019.0 mb 0.00 in0.0 mm 0.00 in0.0 mm 0.03 in0.8 mm
11:35 AM 83.8°F28.8°C 69.8°F21.0°C 63% 2.3 mph SE3.7 kmh SE 5.3 mph8.5 kmh 30.09 in1019.0 mb 0.00 in0.0 mm 0.00 in0.0 mm 0.03 in0.8 mm
11:40 AM 84.5°F29.2°C 69.7°F20.9°C 61% 2.0 mph WSW3.2 kmh WSW 3.7 mph6.0 kmh 30.09 in1019.0 mb 0.00 in0.0 mm 0.00 in0.0 mm 0.03 in0.8 mm
11:45 AM 84.9°F29.4°C 69.5°F20.8°C 60% 2.2 mph SW3.5 kmh SW 4.2 mph6.8 kmh 30.09 in1019.0 mb 0.00 in0.0 mm 0.00 in0.0 mm 0.03 in0.8 mm
11:50 AM 85.0°F29.4°C 69.1°F20.6°C 59% 2.3 mph ESE3.7 kmh ESE 3.7 mph6.0 kmh 30.09 in1019.0 mb 0.00 in0.0 mm 0.00 in0.0 mm 0.03 in0.8 mm
11:55 AM 85.5°F29.7°C 69.2°F20.7°C 58% 2.1 mph N3.4 kmh N 4.2 mph6.8 kmh 30.09 in1019.0 mb 0.00 in0.0 mm 0.00 in0.0 mm 0.03 in0.8 mm
12:00 PM 85.7°F29.8°C 69.3°F20.7°C 58% 1.9 mph SE3.1 kmh SE 4.7 mph7.6 kmh 30.09 in1019.0 mb 0.00 in0.0 mm 0.00 in0.0 mm 0.03 in0.8 mm
12:05 PM 85.3°F29.6°C 69.1°F20.6°C 59% 1.6 mph S2.6 kmh S 4.7 mph7.6 kmh 30.09 in1019.0 mb 0.00 in0.0 mm 0.00 in0.0 mm 0.03 in0.8 mm
12:10 PM 84.2°F29.0°C 68.6°F20.3°C 60% 1.6 mph ESE2.6 kmh ESE 3.7 mph6.0 kmh 30.09 in1019.0 mb 0.00 in0.0 mm 0.00 in0.0 mm 0.03 in0.8 mm
12:15 PM 83.8°F28.8°C 68.4°F20.2°C 60% 1.8 mph E2.9 kmh E 4.7 mph7.6 kmh 30.09 in1019.0 mb 0.00 in0.0 mm 0.00 in0.0 mm 0.03 in0.8 mm
12:20 PM 83.4°F28.6°C 68.4°F20.2°C 61% 1.7 mph S2.7 kmh S 4.2 mph6.8 kmh 30.09 in1019.0 mb 0.00 in0.0 mm 0.00 in0.0 mm 0.03 in0.8 mm
12:25 PM 82.6°F28.1°C 68.4°F20.2°C 62% 1.0 mph E1.6 kmh E 2.7 mph4.3 kmh 30.09 in1019.0 mb 0.00 in0.0 mm 0.00 in0.0 mm 0.03 in0.8 mm
12:30 PM 82.1°F27.8°C 68.6°F20.3°C 64% 1.2 mph SW1.9 kmh SW 3.2 mph5.1 kmh 30.09 in1019.0 mb 0.00 in0.0 mm 0.00 in0.0 mm 0.03 in0.8 mm
12:35 PM 81.9°F27.7°C 68.7°F20.4°C 64% 1.2 mph NNW1.9 kmh NNW 3.2 mph5.1 kmh 30.09 in1019.0 mb 0.00 in0.0 mm 0.00 in0.0 mm 0.03 in0.8 mm
12:40 PM 81.1°F27.3°C 68.4°F20.2°C 65% 2.0 mph SSE3.2 kmh SSE 3.2 mph5.1 kmh 30.09 in1019.0 mb 0.00 in0.0 mm 0.00 in0.0 mm 0.03 in0.8 mm
12:45 PM 80.7°F27.1°C 68.7°F20.4°C 67% 1.5 mph SE2.4 kmh SE 3.2 mph5.1 kmh 30.09 in1019.0 mb 0.00 in0.0 mm 0.00 in0.0 mm 0.03 in0.8 mm
12:50 PM 80.6°F27.0°C 69.0°F20.6°C 68% 1.2 mph E1.9 kmh E 3.2 mph5.1 kmh 30.09 in1019.0 mb 0.00 in0.0 mm 0.00 in0.0 mm 0.03 in0.8 mm
12:55 PM 80.0°F26.7°C 68.6°F20.3°C 68% 2.2 mph ESE3.5 kmh ESE 4.2 mph6.8 kmh 30.09 in1019.0 mb 0.00 in0.0 mm 0.00 in0.0 mm 0.03 in0.8 mm
01:00 PM 78.6°F25.9°C 69.4°F20.8°C 74% 1.4 mph SE2.3 kmh SE 3.7 mph6.0 kmh 30.09 in1019.0 mb 0.00 in0.0 mm 0.00 in0.0 mm 0.03 in0.8 mm
01:05 PM 78.0°F25.6°C 70.1°F21.2°C 77% 0.1 mph N0.2 kmh N 1.1 mph1.8 kmh 30.10 in1019.3 mb 0.00 in0.0 mm 0.00 in0.0 mm 0.03 in0.8 mm
01:10 PM 78.8°F26.0°C 69.9°F21.1°C 74% 1.0 mph SSE1.6 kmh SSE 2.7 mph4.3 kmh 30.10 in1019.3 mb 0.00 in0.0 mm 0.00 in0.0 mm 0.03 in0.8 mm
01:15 PM 78.6°F25.9°C 68.8°F20.4°C 72% 0.7 mph ENE1.1 kmh ENE 2.7 mph4.3 kmh 30.10 in1019.3 mb 0.00 in0.0 mm 0.00 in0.0 mm 0.03 in0.8 mm
01:20 PM 78.4°F25.8°C 68.6°F20.3°C 72% 1.3 mph NNE2.1 kmh NNE 3.2 mph5.1 kmh 30.10 in1019.3 mb 0.00 in0.0 mm 0.00 in0.0 mm 0.03 in0.8 mm
01:25 PM 78.1°F25.6°C 68.6°F20.3°C 73% 0.6 mph SSE1.0 kmh SSE 3.2 mph5.1 kmh 30.10 in1019.3 mb 0.00 in0.0 mm 0.00 in0.0 mm 0.03 in0.8 mm
01:30 PM 78.2°F25.7°C 68.8°F20.4°C 73% 0.3 mph SE0.5 kmh SE 1.7 mph2.7 kmh 30.10 in1019.3 mb 0.00 in0.0 mm 0.00 in0.0 mm 0.03 in0.8 mm
01:35 PM 78.2°F25.7°C 68.8°F20.4°C 73% 2.2 mph S3.5 kmh S 5.3 mph8.5 kmh 30.10 in1019.3 mb 0.00 in0.0 mm 0.00 in0.0 mm 0.03 in0.8 mm
01:40 PM 78.6°F25.9°C 68.8°F20.4°C 72% 1.7 mph NNE2.7 kmh NNE 5.3 mph8.5 kmh 30.10 in1019.3 mb 0.00 in0.0 mm 0.00 in0.0 mm 0.03 in0.8 mm
01:45 PM 79.2°F26.2°C 68.9°F20.5°C 71% 2.3 mph S3.7 kmh S 4.7 mph7.6 kmh 30.10 in1019.3 mb 0.00 in0.0 mm 0.00 in0.0 mm 0.03 in0.8 mm
01:50 PM 78.9°F26.1°C 68.3°F20.2°C 70% 1.5 mph SE2.4 kmh SE 3.2 mph5.1 kmh 30.10 in1019.3 mb 0.00 in0.0 mm 0.00 in0.0 mm 0.03 in0.8 mm
01:55 PM 78.5°F25.8°C 68.6°F20.3°C 72% 1.0 mph ESE1.6 kmh ESE 2.2 mph3.5 kmh 30.11 in1019.6 mb 0.00 in0.0 mm 0.00 in0.0 mm 0.03 in0.8 mm
02:00 PM 78.2°F25.7°C 68.4°F20.2°C 72% 1.0 mph NW1.6 kmh NW 2.2 mph3.5 kmh 30.11 in1019.6 mb 0.00 in0.0 mm 0.00 in0.0 mm 0.03 in0.8 mm
02:05 PM 78.3°F25.7°C 68.5°F20.3°C 72% 1.2 mph E1.9 kmh E 2.7 mph4.3 kmh 30.11 in1019.6 mb 0.00 in0.0 mm 0.00 in0.0 mm 0.03 in0.8 mm
02:10 PM 78.2°F25.7°C 68.4°F20.2°C 72% 1.5 mph S2.4 kmh S 3.2 mph5.1 kmh 30.11 in1019.6 mb 0.00 in0.0 mm 0.00 in0.0 mm 0.03 in0.8 mm
02:15 PM 77.9°F25.5°C 68.2°F20.1°C 72% 1.7 mph NE2.7 kmh NE 3.2 mph5.1 kmh 30.11 in1019.6 mb 0.00 in0.0 mm 0.00 in0.0 mm 0.03 in0.8 mm
02:20 PM 77.6°F25.3°C 68.1°F20.1°C 73% 1.3 mph SE2.1 kmh SE 3.2 mph5.1 kmh 30.11 in1019.6 mb 0.00 in0.0 mm 0.00 in0.0 mm 0.03 in0.8 mm
02:25 PM 77.5°F25.3°C 68.2°F20.1°C 73% 1.6 mph SW2.6 kmh SW 4.7 mph7.6 kmh 30.11 in1019.6 mb 0.00 in0.0 mm 0.00 in0.0 mm 0.03 in0.8 mm
02:30 PM 77.8°F25.4°C 68.3°F20.2°C 73% 1.7 mph SSW2.7 kmh SSW 3.2 mph5.1 kmh 30.11 in1019.6 mb 0.00 in0.0 mm 0.00 in0.0 mm 0.03 in0.8 mm
02:35 PM 77.7°F25.4°C 68.2°F20.1°C 73% 1.3 mph NE2.1 kmh NE 4.2 mph6.8 kmh 30.11 in1019.6 mb 0.00 in0.0 mm 0.00 in0.0 mm 0.03 in0.8 mm
02:40 PM 77.2°F25.1°C 68.1°F20.1°C 74% 2.0 mph ESE3.2 kmh ESE 4.2 mph6.8 kmh 30.11 in1019.6 mb 0.00 in0.0 mm 0.00 in0.0 mm 0.03 in0.8 mm
02:45 PM 77.1°F25.1°C 68.1°F20.1°C 74% 1.8 mph SE2.9 kmh SE 4.2 mph6.8 kmh 30.11 in1019.6 mb 0.00 in0.0 mm 0.00 in0.0 mm 0.03 in0.8 mm
02:50 PM 77.3°F25.2°C 68.2°F20.1°C 74% 1.6 mph E2.6 kmh E 3.2 mph5.1 kmh 30.11 in1019.6 mb 0.00 in0.0 mm 0.00 in0.0 mm 0.03 in0.8 mm
02:55 PM 77.5°F25.3°C 68.1°F20.1°C 73% 1.9 mph ESE3.1 kmh ESE 3.7 mph6.0 kmh 30.11 in1019.6 mb 0.00 in0.0 mm 0.00 in0.0 mm 0.03 in0.8 mm
03:00 PM 76.9°F24.9°C 67.9°F19.9°C 74% 1.9 mph SW3.1 kmh SW 5.8 mph9.3 kmh 30.11 in1019.6 mb 0.00 in0.0 mm 0.00 in0.0 mm 0.03 in0.8 mm
03:05 PM 76.0°F24.4°C 67.5°F19.7°C 75% 1.5 mph SSE2.4 kmh SSE 4.2 mph6.8 kmh 30.12 in1020.0 mb 0.00 in0.0 mm 0.00 in0.0 mm 0.03 in0.8 mm
03:10 PM 76.1°F24.5°C 67.9°F19.9°C 76% 1.5 mph NE2.4 kmh NE 5.3 mph8.5 kmh 30.12 in1020.0 mb 0.00 in0.0 mm 0.00 in0.0 mm 0.03 in0.8 mm
03:15 PM 76.1°F24.5°C 67.8°F19.9°C 75% 2.2 mph NW3.5 kmh NW 3.7 mph6.0 kmh 30.12 in1020.0 mb 0.00 in0.0 mm 0.00 in0.0 mm 0.03 in0.8 mm
03:20 PM 76.1°F24.5°C 67.6°F19.8°C 75% 1.5 mph E2.4 kmh E 3.2 mph5.1 kmh 30.12 in1020.0 mb 0.00 in0.0 mm 0.00 in0.0 mm 0.03 in0.8 mm
03:25 PM 75.8°F24.3°C 67.6°F19.8°C 76% 1.5 mph ENE2.4 kmh ENE 5.8 mph9.3 kmh 30.12 in1020.0 mb 0.00 in0.0 mm 0.00 in0.0 mm 0.03 in0.8 mm
03:30 PM 75.9°F24.4°C 67.6°F19.8°C 75% 1.8 mph W2.9 kmh W 3.7 mph6.0 kmh 30.12 in1020.0 mb 0.00 in0.0 mm 0.00 in0.0 mm 0.03 in0.8 mm
03:35 PM 75.6°F24.2°C 67.5°F19.7°C 76% 1.4 mph NE2.3 kmh NE 2.7 mph4.3 kmh 30.12 in1020.0 mb 0.00 in0.0 mm 0.00 in0.0 mm 0.03 in0.8 mm
03:40 PM 75.6°F24.2°C 67.5°F19.7°C 76% 1.9 mph E3.1 kmh E 3.7 mph6.0 kmh 30.13 in1020.3 mb 0.00 in0.0 mm 0.00 in0.0 mm 0.03 in0.8 mm
03:45 PM 75.6°F24.2°C 67.5°F19.7°C 76% 1.4 mph SE2.3 kmh SE 3.2 mph5.1 kmh 30.13 in1020.3 mb 0.00 in0.0 mm 0.00 in0.0 mm 0.03 in0.8 mm
03:50 PM 75.6°F24.2°C 67.5°F19.7°C 76% 1.2 mph SSE1.9 kmh SSE 2.7 mph4.3 kmh 30.13 in1020.3 mb 0.00 in0.0 mm 0.00 in0.0 mm 0.03 in0.8 mm
03:55 PM 75.7°F24.3°C 67.6°F19.8°C 76% 1.2 mph SE1.9 kmh SE 3.2 mph5.1 kmh 30.13 in1020.3 mb 0.00 in0.0 mm 0.00 in0.0 mm 0.03 in0.8 mm
04:00 PM 75.7°F24.3°C 67.6°F19.8°C 76% 1.3 mph S2.1 kmh S 2.7 mph4.3 kmh 30.13 in1020.3 mb 0.00 in0.0 mm 0.00 in0.0 mm 0.03 in0.8 mm
04:05 PM 75.7°F24.3°C 67.6°F19.8°C 76% 1.1 mph SSW1.8 kmh SSW 2.7 mph4.3 kmh 30.13 in1020.3 mb 0.00 in0.0 mm 0.00 in0.0 mm 0.03 in0.8 mm
04:10 PM 75.8°F24.3°C 67.5°F19.7°C 76% 0.6 mph E1.0 kmh E 2.2 mph3.5 kmh 30.13 in1020.3 mb 0.00 in0.0 mm 0.00 in0.0 mm 0.03 in0.8 mm
04:15 PM 76.0°F24.4°C 67.4°F19.7°C 75% 1.1 mph SW1.8 kmh SW 2.2 mph3.5 kmh 30.13 in1020.3 mb 0.00 in0.0 mm 0.00 in0.0 mm 0.03 in0.8 mm
04:20 PM 75.0°F23.9°C 67.8°F19.9°C 78% 0.9 mph S1.4 kmh S 2.7 mph4.3 kmh 30.13 in1020.3 mb 0.00 in0.0 mm 0.00 in0.0 mm 0.03 in0.8 mm
04:25 PM 73.9°F23.3°C 67.4°F19.7°C 80% 3.0 mph SW4.8 kmh SW 4.7 mph7.6 kmh 30.14 in1020.7 mb 0.00 in0.0 mm 0.00 in0.0 mm 0.03 in0.8 mm
04:30 PM 72.9°F22.7°C 66.6°F19.2°C 81% 2.6 mph SE4.2 kmh SE 4.7 mph7.6 kmh 30.14 in1020.7 mb 0.00 in0.0 mm 0.00 in0.0 mm 0.03 in0.8 mm
04:35 PM 72.2°F22.3°C 66.4°F19.1°C 82% 2.3 mph SSE3.7 kmh SSE 3.7 mph6.0 kmh 30.14 in1020.7 mb 0.00 in0.0 mm 0.00 in0.0 mm 0.03 in0.8 mm
04:40 PM 71.9°F22.2°C 66.5°F19.2°C 83% 2.5 mph ESE4.0 kmh ESE 6.3 mph10.1 kmh 30.14 in1020.7 mb 0.00 in0.0 mm 0.00 in0.0 mm 0.03 in0.8 mm
04:45 PM 71.8°F22.1°C 66.4°F19.1°C 83% 1.6 mph SSE2.6 kmh SSE 4.2 mph6.8 kmh 30.14 in1020.7 mb 0.00 in0.0 mm 0.00 in0.0 mm 0.03 in0.8 mm
04:50 PM 71.6°F22.0°C 66.5°F19.2°C 84% 2.1 mph SE3.4 kmh SE 4.2 mph6.8 kmh 30.15 in1021.0 mb 0.00 in0.0 mm 0.00 in0.0 mm 0.03 in0.8 mm
04:55 PM 71.4°F21.9°C 66.6°F19.2°C 85% 2.2 mph SSW3.5 kmh SSW 4.2 mph6.8 kmh 30.15 in1021.0 mb 0.00 in0.0 mm 0.00 in0.0 mm 0.03 in0.8 mm
05:00 PM 71.0°F21.7°C 66.6°F19.2°C 86% 2.7 mph SE4.3 kmh SE 5.3 mph8.5 kmh 30.15 in1021.0 mb 0.00 in0.0 mm 0.00 in0.0 mm 0.03 in0.8 mm
05:05 PM 70.6°F21.4°C 67.1°F19.5°C 89% 1.6 mph S2.6 kmh S 5.3 mph8.5 kmh 30.16 in1021.3 mb 0.00 in0.0 mm 0.00 in0.0 mm 0.03 in0.8 mm
05:10 PM 70.3°F21.3°C 67.3°F19.6°C 90% 1.5 mph S2.4 kmh S 2.7 mph4.3 kmh 30.16 in1021.3 mb 0.00 in0.0 mm 0.00 in0.0 mm 0.03 in0.8 mm
05:15 PM 69.7°F20.9°C 67.1°F19.5°C 92% 1.6 mph S2.6 kmh S 3.2 mph5.1 kmh 30.16 in1021.3 mb 0.01 in0.3 mm 0.12 in3.0 mm 0.04 in1.0 mm
05:20 PM 69.4°F20.8°C 67.1°F19.5°C 92% 0.7 mph SE1.1 kmh SE 2.2 mph3.5 kmh 30.17 in1021.7 mb 0.01 in0.3 mm 0.00 in0.0 mm 0.04 in1.0 mm
05:25 PM 69.4°F20.8°C 67.3°F19.6°C 93% 0.5 mph W0.8 kmh W 2.2 mph3.5 kmh 30.17 in1021.7 mb 0.01 in0.3 mm 0.00 in0.0 mm 0.04 in1.0 mm
05:30 PM 69.3°F20.7°C 67.1°F19.5°C 93% 1.4 mph SE2.3 kmh SE 3.7 mph6.0 kmh 30.18 in1022.0 mb 0.01 in0.3 mm 0.00 in0.0 mm 0.04 in1.0 mm
05:35 PM 69.3°F20.7°C 66.8°F19.3°C 92% 2.0 mph NW3.2 kmh NW 4.2 mph6.8 kmh 30.18 in1022.0 mb 0.01 in0.3 mm 0.00 in0.0 mm 0.04 in1.0 mm
05:40 PM 69.2°F20.7°C 66.5°F19.2°C 91% 2.5 mph SE4.0 kmh SE 3.2 mph5.1 kmh 30.19 in1022.4 mb 0.01 in0.3 mm 0.00 in0.0 mm 0.04 in1.0 mm
05:45 PM 69.0°F20.6°C 65.9°F18.8°C 90% 1.7 mph S2.7 kmh S 3.7 mph6.0 kmh 30.19 in1022.4 mb 0.01 in0.3 mm 0.00 in0.0 mm 0.04 in1.0 mm
05:50 PM 68.7°F20.4°C 65.9°F18.8°C 91% 2.3 mph S3.7 kmh S 4.7 mph7.6 kmh 30.19 in1022.4 mb 0.01 in0.3 mm 0.00 in0.0 mm 0.04 in1.0 mm
05:55 PM 68.4°F20.2°C 66.0°F18.9°C 92% 2.4 mph E3.9 kmh E 3.7 mph6.0 kmh 30.19 in1022.4 mb 0.01 in0.3 mm 0.00 in0.0 mm 0.04 in1.0 mm
06:00 PM 68.2°F20.1°C 65.8°F18.8°C 92% 0.9 mph S1.4 kmh S 3.7 mph6.0 kmh 30.19 in1022.4 mb 0.01 in0.3 mm 0.00 in0.0 mm 0.04 in1.0 mm
06:05 PM 68.2°F20.1°C 65.6°F18.7°C 92% 1.4 mph SSE2.3 kmh SSE 2.7 mph4.3 kmh 30.20 in1022.7 mb 0.01 in0.3 mm 0.00 in0.0 mm 0.04 in1.0 mm
06:10 PM 68.2°F20.1°C 65.5°F18.6°C 91% 1.1 mph SE1.8 kmh SE 2.7 mph4.3 kmh 30.20 in1022.7 mb 0.01 in0.3 mm 0.00 in0.0 mm 0.04 in1.0 mm
06:15 PM 68.0°F20.0°C 65.3°F18.5°C 91% 1.0 mph WSW1.6 kmh WSW 2.2 mph3.5 kmh 30.20 in1022.7 mb 0.00 in0.0 mm 0.00 in0.0 mm 0.04 in1.0 mm
06:20 PM 68.0°F20.0°C 65.3°F18.5°C 91% 0.4 mph SW0.6 kmh SW 1.1 mph1.8 kmh 30.20 in1022.7 mb 0.00 in0.0 mm 0.00 in0.0 mm 0.04 in1.0 mm
06:25 PM 67.9°F19.9°C 65.1°F18.4°C 91% 1.8 mph E2.9 kmh E 4.2 mph6.8 kmh 30.21 in1023.0 mb 0.00 in0.0 mm 0.00 in0.0 mm 0.04 in1.0 mm
06:30 PM 67.8°F19.9°C 65.0°F18.3°C 91% 3.1 mph SE5.0 kmh SE 5.3 mph8.5 kmh 30.21 in1023.0 mb 0.00 in0.0 mm 0.00 in0.0 mm 0.04 in1.0 mm
06:35 PM 67.8°F19.9°C 64.8°F18.2°C 90% 2.4 mph S3.9 kmh S 4.7 mph7.6 kmh 30.21 in1023.0 mb 0.00 in0.0 mm 0.00 in0.0 mm 0.04 in1.0 mm
06:40 PM 67.6°F19.8°C 64.8°F18.2°C 91% 1.8 mph E2.9 kmh E 3.2 mph5.1 kmh 30.22 in1023.4 mb 0.00 in0.0 mm 0.00 in0.0 mm 0.04 in1.0 mm
06:45 PM 67.5°F19.7°C 65.1°F18.4°C 92% 1.6 mph E2.6 kmh E 3.7 mph6.0 kmh 30.22 in1023.4 mb 0.00 in0.0 mm 0.00 in0.0 mm 0.04 in1.0 mm
06:50 PM 67.3°F19.6°C 65.2°F18.4°C 93% 1.9 mph ENE3.1 kmh ENE 3.7 mph6.0 kmh 30.22 in1023.4 mb 0.00 in0.0 mm 0.00 in0.0 mm 0.04 in1.0 mm
06:55 PM 67.0°F19.4°C 64.9°F18.3°C 93% 1.6 mph SSW2.6 kmh SSW 3.7 mph6.0 kmh 30.22 in1023.4 mb 0.00 in0.0 mm 0.00 in0.0 mm 0.04 in1.0 mm
07:00 PM 66.8°F19.3°C 64.7°F18.2°C 93% 2.5 mph SW4.0 kmh SW 6.8 mph10.9 kmh 30.22 in1023.4 mb 0.00 in0.0 mm 0.00 in0.0 mm 0.04 in1.0 mm
07:05 PM 66.6°F19.2°C 64.7°F18.2°C 94% 2.1 mph SSE3.4 kmh SSE 3.2 mph5.1 kmh 30.23 in1023.7 mb 0.00 in0.0 mm 0.00 in0.0 mm 0.04 in1.0 mm
07:10 PM 66.2°F19.0°C 64.5°F18.1°C 94% 1.5 mph E2.4 kmh E 4.2 mph6.8 kmh 30.23 in1023.7 mb 0.00 in0.0 mm 0.00 in0.0 mm 0.04 in1.0 mm
07:15 PM 66.0°F18.9°C 64.3°F17.9°C 94% 2.3 mph SE3.7 kmh SE 3.7 mph6.0 kmh 30.24 in1024.0 mb 0.00 in0.0 mm 0.00 in0.0 mm 0.04 in1.0 mm
07:20 PM 66.0°F18.9°C 64.2°F17.9°C 94% 1.3 mph S2.1 kmh S 3.2 mph5.1 kmh 30.24 in1024.0 mb 0.00 in0.0 mm 0.00 in0.0 mm 0.04 in1.0 mm
07:25 PM 65.8°F18.8°C 64.0°F17.8°C 94% 1.7 mph SSE2.7 kmh SSE 4.2 mph6.8 kmh 30.24 in1024.0 mb 0.00 in0.0 mm 0.00 in0.0 mm 0.04 in1.0 mm
07:30 PM 65.8°F18.8°C 64.0°F17.8°C 94% 1.9 mph SE3.1 kmh SE 2.7 mph4.3 kmh 30.25 in1024.4 mb 0.00 in0.0 mm 0.00 in0.0 mm 0.04 in1.0 mm
07:35 PM 65.7°F18.7°C 63.6°F17.6°C 93% 1.6 mph SSW2.6 kmh SSW 3.2 mph5.1 kmh 30.25 in1024.4 mb 0.00 in0.0 mm 0.00 in0.0 mm 0.04 in1.0 mm
07:40 PM 65.7°F18.7°C 63.6°F17.6°C 93% 2.1 mph S3.4 kmh S 4.2 mph6.8 kmh 30.25 in1024.4 mb 0.00 in0.0 mm 0.00 in0.0 mm 0.04 in1.0 mm
07:45 PM 65.5°F18.6°C 63.5°F17.5°C 93% 1.6 mph E2.6 kmh E 3.7 mph6.0 kmh 30.25 in1024.4 mb 0.00 in0.0 mm 0.00 in0.0 mm 0.04 in1.0 mm
07:50 PM 65.5°F18.6°C 63.3°F17.4°C 93% 2.0 mph SE3.2 kmh SE 4.7 mph7.6 kmh 30.26 in1024.7 mb 0.00 in0.0 mm 0.00 in0.0 mm 0.04 in1.0 mm
07:55 PM 65.5°F18.6°C 63.0°F17.2°C 92% 2.2 mph NE3.5 kmh NE 4.7 mph7.6 kmh 30.26 in1024.7 mb 0.00 in0.0 mm 0.00 in0.0 mm 0.04 in1.0 mm
08:00 PM 65.5°F18.6°C 62.8°F17.1°C 91% 1.9 mph SSE3.1 kmh SSE 3.7 mph6.0 kmh 30.26 in1024.7 mb 0.00 in0.0 mm 0.00 in0.0 mm 0.04 in1.0 mm
08:05 PM 65.4°F18.6°C 63.0°F17.2°C 92% 2.5 mph SE4.0 kmh SE 3.7 mph6.0 kmh 30.26 in1024.7 mb 0.00 in0.0 mm 0.00 in0.0 mm 0.04 in1.0 mm
08:10 PM 65.2°F18.4°C 62.9°F17.2°C 92% 2.7 mph SSE4.3 kmh SSE 5.8 mph9.3 kmh 30.26 in1024.7 mb 0.00 in0.0 mm 0.00 in0.0 mm 0.04 in1.0 mm
08:15 PM 65.0°F18.3°C 62.9°F17.2°C 93% 2.2 mph WSW3.5 kmh WSW 3.7 mph6.0 kmh 30.27 in1025.1 mb 0.00 in0.0 mm 0.00 in0.0 mm 0.04 in1.0 mm
08:20 PM 64.9°F18.3°C 62.8°F17.1°C 93% 1.5 mph SSE2.4 kmh SSE 3.2 mph5.1 kmh 30.27 in1025.1 mb 0.00 in0.0 mm 0.00 in0.0 mm 0.04 in1.0 mm
08:25 PM 64.9°F18.3°C 62.6°F17.0°C 92% 2.3 mph NE3.7 kmh NE 5.8 mph9.3 kmh 30.27 in1025.1 mb 0.01 in0.3 mm 0.12 in3.0 mm 0.05 in1.3 mm
08:30 PM 64.9°F18.3°C 62.5°F16.9°C 92% 1.9 mph NNW3.1 kmh NNW 4.2 mph6.8 kmh 30.28 in1025.4 mb 0.01 in0.3 mm 0.00 in0.0 mm 0.05 in1.3 mm
08:35 PM 64.8°F18.2°C 62.1°F16.7°C 91% 2.6 mph SE4.2 kmh SE 4.7 mph7.6 kmh 30.28 in1025.4 mb 0.01 in0.3 mm 0.00 in0.0 mm 0.05 in1.3 mm
08:40 PM 64.8°F18.2°C 61.8°F16.6°C 90% 1.6 mph SW2.6 kmh SW 3.2 mph5.1 kmh 30.28 in1025.4 mb 0.01 in0.3 mm 0.00 in0.0 mm 0.05 in1.3 mm
08:45 PM 64.8°F18.2°C 61.8°F16.6°C 90% 2.1 mph NW3.4 kmh NW 5.8 mph9.3 kmh 30.28 in1025.4 mb 0.01 in0.3 mm 0.00 in0.0 mm 0.05 in1.3 mm
08:50 PM 64.7°F18.2°C 61.4°F16.3°C 89% 2.6 mph SE4.2 kmh SE 3.7 mph6.0 kmh 30.29 in1025.7 mb 0.01 in0.3 mm 0.00 in0.0 mm 0.05 in1.3 mm
08:55 PM 64.5°F18.1°C 61.1°F16.2°C 88% 2.4 mph SE3.9 kmh SE 5.3 mph8.5 kmh 30.29 in1025.7 mb 0.01 in0.3 mm 0.00 in0.0 mm 0.05 in1.3 mm
09:00 PM 64.4°F18.0°C 60.6°F15.9°C 87% 3.7 mph WSW6.0 kmh WSW 6.8 mph10.9 kmh 30.29 in1025.7 mb 0.01 in0.3 mm 0.00 in0.0 mm 0.05 in1.3 mm
09:05 PM 64.2°F17.9°C 60.2°F15.7°C 87% 2.9 mph E4.7 kmh E 4.7 mph7.6 kmh 30.30 in1026.1 mb 0.01 in0.3 mm 0.00 in0.0 mm 0.05 in1.3 mm
09:10 PM 64.0°F17.8°C 60.0°F15.6°C 87% 2.5 mph SW4.0 kmh SW 5.3 mph8.5 kmh 30.30 in1026.1 mb 0.01 in0.3 mm 0.00 in0.0 mm 0.05 in1.3 mm
09:15 PM 63.9°F17.7°C 60.0°F15.6°C 87% 2.6 mph SSE4.2 kmh SSE 4.7 mph7.6 kmh 30.30 in1026.1 mb 0.01 in0.3 mm 0.00 in0.0 mm 0.05 in1.3 mm
09:20 PM 63.9°F17.7°C 60.0°F15.6°C 87% 2.0 mph E3.2 kmh E 3.7 mph6.0 kmh 30.30 in1026.1 mb 0.01 in0.3 mm 0.00 in0.0 mm 0.05 in1.3 mm
09:25 PM 63.9°F17.7°C 60.0°F15.6°C 87% 1.3 mph E2.1 kmh E 3.2 mph5.1 kmh 30.30 in1026.1 mb 0.00 in0.0 mm 0.00 in0.0 mm 0.05 in1.3 mm
09:30 PM 63.9°F17.7°C 60.1°F15.6°C 88% 1.2 mph SSW1.9 kmh SSW 2.2 mph3.5 kmh 30.30 in1026.1 mb 0.00 in0.0 mm 0.00 in0.0 mm 0.05 in1.3 mm
09:35 PM 63.9°F17.7°C 60.0°F15.6°C 87% 1.9 mph SSE3.1 kmh SSE 4.7 mph7.6 kmh 30.30 in1026.1 mb 0.00 in0.0 mm 0.00 in0.0 mm 0.05 in1.3 mm
09:40 PM 63.9°F17.7°C 59.6°F15.3°C 86% 0.8 mph NE1.3 kmh NE 2.7 mph4.3 kmh 30.30 in1026.1 mb 0.00 in0.0 mm 0.00 in0.0 mm 0.05 in1.3 mm
09:45 PM 63.7°F17.6°C 59.4°F15.2°C 86% 1.5 mph ENE2.4 kmh ENE 3.2 mph5.1 kmh 30.30 in1026.1 mb 0.00 in0.0 mm 0.00 in0.0 mm 0.05 in1.3 mm
09:50 PM 63.7°F17.6°C 59.4°F15.2°C 86% 2.0 mph SE3.2 kmh SE 3.7 mph6.0 kmh 30.30 in1026.1 mb 0.00 in0.0 mm 0.00 in0.0 mm 0.05 in1.3 mm
09:55 PM 63.7°F17.6°C 59.3°F15.2°C 86% 1.3 mph S2.1 kmh S 2.2 mph3.5 kmh 30.30 in1026.1 mb 0.00 in0.0 mm 0.00 in0.0 mm 0.05 in1.3 mm
10:00 PM 63.7°F17.6°C 59.1°F15.1°C 85% 1.3 mph S2.1 kmh S 3.7 mph6.0 kmh 30.30 in1026.1 mb 0.00 in0.0 mm 0.00 in0.0 mm 0.05 in1.3 mm
10:05 PM 63.7°F17.6°C 58.8°F14.9°C 84% 1.7 mph NE2.7 kmh NE 3.7 mph6.0 kmh 30.30 in1026.1 mb 0.00 in0.0 mm 0.00 in0.0 mm 0.05 in1.3 mm
10:10 PM 63.7°F17.6°C 58.1°F14.5°C 82% 1.2 mph ENE1.9 kmh ENE 2.7 mph4.3 kmh 30.30 in1026.1 mb 0.00 in0.0 mm 0.00 in0.0 mm 0.05 in1.3 mm
10:15 PM 63.7°F17.6°C 58.2°F14.6°C 82% 1.7 mph ESE2.7 kmh ESE 3.2 mph5.1 kmh 30.30 in1026.1 mb 0.00 in0.0 mm 0.00 in0.0 mm 0.05 in1.3 mm
10:20 PM 63.7°F17.6°C 57.5°F14.2°C 80% 1.4 mph S2.3 kmh S 2.7 mph4.3 kmh 30.30 in1026.1 mb 0.00 in0.0 mm 0.00 in0.0 mm 0.05 in1.3 mm
10:25 PM 63.7°F17.6°C 57.1°F13.9°C 79% 1.6 mph NNW2.6 kmh NNW 3.7 mph6.0 kmh 30.30 in1026.1 mb 0.00 in0.0 mm 0.00 in0.0 mm 0.05 in1.3 mm
10:30 PM 63.9°F17.7°C 56.9°F13.8°C 78% 2.2 mph SE3.5 kmh SE 5.3 mph8.5 kmh 30.30 in1026.1 mb 0.00 in0.0 mm 0.00 in0.0 mm 0.05 in1.3 mm
10:35 PM 63.7°F17.6°C 56.7°F13.7°C 78% 1.9 mph E3.1 kmh E 3.7 mph6.0 kmh 30.30 in1026.1 mb 0.00 in0.0 mm 0.00 in0.0 mm 0.05 in1.3 mm
10:40 PM 63.7°F17.6°C 56.3°F13.5°C 77% 1.8 mph SE2.9 kmh SE 4.7 mph7.6 kmh 30.30 in1026.1 mb 0.00 in0.0 mm 0.00 in0.0 mm 0.05 in1.3 mm
10:45 PM 63.7°F17.6°C 56.3°F13.5°C 77% 2.2 mph SE3.5 kmh SE 4.2 mph6.8 kmh 30.30 in1026.1 mb 0.00 in0.0 mm 0.00 in0.0 mm 0.05 in1.3 mm
10:50 PM 63.7°F17.6°C 56.3°F13.5°C 77% 1.9 mph E3.1 kmh E 4.7 mph7.6 kmh 30.30 in1026.1 mb 0.00 in0.0 mm 0.00 in0.0 mm 0.05 in1.3 mm
10:55 PM 63.7°F17.6°C 56.3°F13.5°C 77% 1.6 mph E2.6 kmh E 5.3 mph8.5 kmh 30.30 in1026.1 mb 0.00 in0.0 mm 0.00 in0.0 mm 0.05 in1.3 mm
11:00 PM 63.7°F17.6°C 56.3°F13.5°C 77% 0.5 mph SE0.8 kmh SE 2.2 mph3.5 kmh 30.30 in1026.1 mb 0.00 in0.0 mm 0.00 in0.0 mm 0.05 in1.3 mm
11:05 PM 63.7°F17.6°C 56.3°F13.5°C 77% 1.5 mph SSE2.4 kmh SSE 3.2 mph5.1 kmh 30.31 in1026.4 mb 0.00 in0.0 mm 0.00 in0.0 mm 0.05 in1.3 mm
11:10 PM 63.6°F17.6°C 56.3°F13.5°C 77% 0.8 mph E1.3 kmh E 3.7 mph6.0 kmh 30.31 in1026.4 mb 0.00 in0.0 mm 0.00 in0.0 mm 0.05 in1.3 mm
11:15 PM 63.5°F17.5°C 56.3°F13.5°C 77% 1.5 mph E2.4 kmh E 3.7 mph6.0 kmh 30.31 in1026.4 mb 0.00 in0.0 mm 0.00 in0.0 mm 0.05 in1.3 mm
11:20 PM 63.5°F17.5°C 56.2°F13.4°C 77% 1.0 mph SE1.6 kmh SE 2.7 mph4.3 kmh 30.31 in1026.4 mb 0.00 in0.0 mm 0.00 in0.0 mm 0.05 in1.3 mm
11:25 PM 63.5°F17.5°C 56.2°F13.4°C 77% 1.6 mph E2.6 kmh E 4.2 mph6.8 kmh 30.31 in1026.4 mb 0.00 in0.0 mm 0.00 in0.0 mm 0.05 in1.3 mm
11:30 PM 63.6°F17.6°C 56.2°F13.4°C 77% 1.7 mph SE2.7 kmh SE 3.2 mph5.1 kmh 30.32 in1026.8 mb 0.00 in0.0 mm 0.00 in0.0 mm 0.05 in1.3 mm
11:35 PM 63.7°F17.6°C 56.0°F13.3°C 76% 1.2 mph ESE1.9 kmh ESE 2.7 mph4.3 kmh 30.32 in1026.8 mb 0.00 in0.0 mm 0.00 in0.0 mm 0.05 in1.3 mm
11:40 PM 63.7°F17.6°C 55.9°F13.3°C 76% 1.3 mph S2.1 kmh S 3.7 mph6.0 kmh 30.32 in1026.8 mb 0.00 in0.0 mm 0.00 in0.0 mm 0.05 in1.3 mm
11:45 PM 63.6°F17.6°C 55.4°F13.0°C 75% 1.8 mph N2.9 kmh N 5.8 mph9.3 kmh 30.32 in1026.8 mb 0.00 in0.0 mm 0.00 in0.0 mm 0.05 in1.3 mm
11:50 PM 63.5°F17.5°C 54.9°F12.7°C 74% 2.3 mph ESE3.7 kmh ESE 4.2 mph6.8 kmh 30.32 in1026.8 mb 0.00 in0.0 mm 0.00 in0.0 mm 0.05 in1.3 mm
11:55 PM 63.3°F17.4°C 54.5°F12.5°C 73% 2.0 mph S3.2 kmh S 4.2 mph6.8 kmh 30.33 in1027.1 mb 0.00 in0.0 mm 0.00 in0.0 mm 0.05 in1.3 mm